sensor_id;sensor_type;location;lat;lon;timestamp;temperature;humidity
9448;DHT22;4762;48.128;11.376;2022-10-19T00:01:16;13.90;98.70
9448;DHT22;4762;48.128;11.376;2022-10-19T00:21:05;13.80;99.50
9448;DHT22;4762;48.128;11.376;2022-10-19T00:23:16;13.90;99.20
9448;DHT22;4762;48.128;11.376;2022-10-19T00:25:31;13.90;99.30
9448;DHT22;4762;48.128;11.376;2022-10-19T00:27:40;14.00;99.00
9448;DHT22;4762;48.128;11.376;2022-10-19T00:29:52;14.00;98.80
9448;DHT22;4762;48.128;11.376;2022-10-19T00:31:57;14.00;98.90
9448;DHT22;4762;48.128;11.376;2022-10-19T00:34:11;14.10;99.40
9448;DHT22;4762;48.128;11.376;2022-10-19T00:36:28;14.10;99.20
9448;DHT22;4762;48.128;11.376;2022-10-19T00:56:04;14.30;98.60
9448;DHT22;4762;48.128;11.376;2022-10-19T00:58:12;14.30;98.70
9448;DHT22;4762;48.128;11.376;2022-10-19T01:00:28;14.30;99.00
9448;DHT22;4762;48.128;11.376;2022-10-19T01:02:49;14.40;98.70
9448;DHT22;4762;48.128;11.376;2022-10-19T01:04:53;14.30;98.50
9448;DHT22;4762;48.128;11.376;2022-10-19T01:07:08;14.10;99.10
9448;DHT22;4762;48.128;11.376;2022-10-19T01:09:19;14.20;99.20
9448;DHT22;4762;48.128;11.376;2022-10-19T01:30:10;14.10;99.70
9448;DHT22;4762;48.128;11.376;2022-10-19T01:31:44;14.20;99.90
9448;DHT22;4762;48.128;11.376;2022-10-19T01:34:07;14.20;99.40
9448;DHT22;4762;48.128;11.376;2022-10-19T01:36:38;14.20;99.30
9448;DHT22;4762;48.128;11.376;2022-10-19T01:38:50;14.20;99.10
9448;DHT22;4762;48.128;11.376;2022-10-19T01:41:03;14.30;98.80
9448;DHT22;4762;48.128;11.376;2022-10-19T01:43:23;14.40;98.50
9448;DHT22;4762;48.128;11.376;2022-10-19T01:45:51;14.40;98.30
9448;DHT22;4762;48.128;11.376;2022-10-19T01:48:06;14.20;98.40
9448;DHT22;4762;48.128;11.376;2022-10-19T01:50:26;14.20;98.10
9448;DHT22;4762;48.128;11.376;2022-10-19T01:52:32;14.20;98.40
9448;DHT22;4762;48.128;11.376;2022-10-19T01:54:38;14.10;98.30
9448;DHT22;4762;48.128;11.376;2022-10-19T01:56:47;14.10;98.50
9448;DHT22;4762;48.128;11.376;2022-10-19T01:58:52;14.00;98.80
9448;DHT22;4762;48.128;11.376;2022-10-19T02:01:01;14.00;99.00
9448;DHT22;4762;48.128;11.376;2022-10-19T02:03:16;14.10;98.80
9448;DHT22;4762;48.128;11.376;2022-10-19T02:05:27;14.10;98.50
9448;DHT22;4762;48.128;11.376;2022-10-19T02:07:36;14.10;98.60
9448;DHT22;4762;48.128;11.376;2022-10-19T02:09:45;14.30;98.60
9448;DHT22;4762;48.128;11.376;2022-10-19T02:11:53;14.20;98.60
9448;DHT22;4762;48.128;11.376;2022-10-19T02:14:00;14.30;98.90
9448;DHT22;4762;48.128;11.376;2022-10-19T02:16:12;14.20;99.10
9448;DHT22;4762;48.128;11.376;2022-10-19T02:18:13;14.10;99.10
9448;DHT22;4762;48.128;11.376;2022-10-19T02:20:30;14.20;99.40
9448;DHT22;4762;48.128;11.376;2022-10-19T02:22:41;14.10;99.10
9448;DHT22;4762;48.128;11.376;2022-10-19T02:24:51;14.10;99.60
9448;DHT22;4762;48.128;11.376;2022-10-19T02:27:00;14.10;99.40
9448;DHT22;4762;48.128;11.376;2022-10-19T02:29:07;14.20;99.40
9448;DHT22;4762;48.128;11.376;2022-10-19T02:31:12;14.20;99.10
9448;DHT22;4762;48.128;11.376;2022-10-19T02:33:17;14.10;99.50
9448;DHT22;4762;48.128;11.376;2022-10-19T02:35:25;14.10;99.40
9448;DHT22;4762;48.128;11.376;2022-10-19T02:37:36;14.10;99.30
9448;DHT22;4762;48.128;11.376;2022-10-19T02:39:42;14.10;99.40
9448;DHT22;4762;48.128;11.376;2022-10-19T02:42:05;14.20;99.40
9448;DHT22;4762;48.128;11.376;2022-10-19T03:01:27;14.30;99.10
9448;DHT22;4762;48.128;11.376;2022-10-19T03:03:34;14.30;99.30
9448;DHT22;4762;48.128;11.376;2022-10-19T03:05:41;14.30;99.40
9448;DHT22;4762;48.128;11.376;2022-10-19T03:07:52;14.30;99.60
9448;DHT22;4762;48.128;11.376;2022-10-19T03:09:58;14.30;99.20
9448;DHT22;4762;48.128;11.376;2022-10-19T03:12:06;14.40;99.20
9448;DHT22;4762;48.128;11.376;2022-10-19T03:14:12;14.30;99.30
9448;DHT22;4762;48.128;11.376;2022-10-19T03:16:22;14.30;99.40
9448;DHT22;4762;48.128;11.376;2022-10-19T03:18:28;14.40;99.40
9448;DHT22;4762;48.128;11.376;2022-10-19T03:20:43;14.40;99.30
9448;DHT22;4762;48.128;11.376;2022-10-19T03:22:55;14.40;99.20
9448;DHT22;4762;48.128;11.376;2022-10-19T03:25:09;14.40;99.40
9448;DHT22;4762;48.128;11.376;2022-10-19T03:27:18;14.50;99.40
9448;DHT22;4762;48.128;11.376;2022-10-19T03:29:26;14.40;99.60
9448;DHT22;4762;48.128;11.376;2022-10-19T03:31:31;14.40;99.50
9448;DHT22;4762;48.128;11.376;2022-10-19T03:33:37;14.50;99.40
9448;DHT22;4762;48.128;11.376;2022-10-19T03:35:44;14.30;99.40
9448;DHT22;4762;48.128;11.376;2022-10-19T03:37:53;14.30;99.40
9448;DHT22;4762;48.128;11.376;2022-10-19T03:39:57;14.40;99.60
9448;DHT22;4762;48.128;11.376;2022-10-19T03:42:00;14.40;99.90
9448;DHT22;4762;48.128;11.376;2022-10-19T03:44:10;14.40;99.80
9448;DHT22;4762;48.128;11.376;2022-10-19T03:46:16;14.50;99.40
9448;DHT22;4762;48.128;11.376;2022-10-19T03:48:24;14.50;99.40
9448;DHT22;4762;48.128;11.376;2022-10-19T03:50:43;14.50;99.20
9448;DHT22;4762;48.128;11.376;2022-10-19T03:52:51;14.50;99.60
9448;DHT22;4762;48.128;11.376;2022-10-19T03:54:54;14.40;99.60
9448;DHT22;4762;48.128;11.376;2022-10-19T03:57:05;14.40;99.80
9448;DHT22;4762;48.128;11.376;2022-10-19T03:59:24;14.50;99.80
9448;DHT22;4762;48.128;11.376;2022-10-19T04:01:35;14.50;99.40
9448;DHT22;4762;48.128;11.376;2022-10-19T04:03:41;14.40;99.70
9448;DHT22;4762;48.128;11.376;2022-10-19T04:05:49;14.50;99.40
9448;DHT22;4762;48.128;11.376;2022-10-19T04:07:53;14.60;99.30
9448;DHT22;4762;48.128;11.376;2022-10-19T04:10:10;14.60;99.10
9448;DHT22;4762;48.128;11.376;2022-10-19T04:12:19;14.50;99.20
9448;DHT22;4762;48.128;11.376;2022-10-19T04:14:23;14.50;99.30
9448;DHT22;4762;48.128;11.376;2022-10-19T04:16:31;14.50;99.40
9448;DHT22;4762;48.128;11.376;2022-10-19T04:18:39;14.50;99.60
9448;DHT22;4762;48.128;11.376;2022-10-19T04:20:57;14.50;99.20
9448;DHT22;4762;48.128;11.376;2022-10-19T04:23:06;14.60;99.20
9448;DHT22;4762;48.128;11.376;2022-10-19T04:25:09;14.70;99.10
9448;DHT22;4762;48.128;11.376;2022-10-19T04:27:17;14.60;99.00
9448;DHT22;4762;48.128;11.376;2022-10-19T04:29:24;14.70;98.90
9448;DHT22;4762;48.128;11.376;2022-10-19T04:31:36;14.60;99.00
9448;DHT22;4762;48.128;11.376;2022-10-19T04:33:45;14.70;98.80
9448;DHT22;4762;48.128;11.376;2022-10-19T04:35:57;14.60;99.00
9448;DHT22;4762;48.128;11.376;2022-10-19T04:38:04;14.50;99.20
9448;DHT22;4762;48.128;11.376;2022-10-19T04:40:12;14.60;99.30
9448;DHT22;4762;48.128;11.376;2022-10-19T04:42:22;14.50;99.20
9448;DHT22;4762;48.128;11.376;2022-10-19T04:44:27;14.60;99.60
9448;DHT22;4762;48.128;11.376;2022-10-19T04:46:35;14.50;99.60
9448;DHT22;4762;48.128;11.376;2022-10-19T04:48:44;14.50;99.60
9448;DHT22;4762;48.128;11.376;2022-10-19T04:50:55;14.50;99.80
9448;DHT22;4762;48.128;11.376;2022-10-19T04:53:01;14.60;99.70
9448;DHT22;4762;48.128;11.376;2022-10-19T04:55:08;14.60;99.60
9448;DHT22;4762;48.128;11.376;2022-10-19T05:14:37;14.70;99.90
9448;DHT22;4762;48.128;11.376;2022-10-19T05:16:47;14.50;99.90
9448;DHT22;4762;48.128;11.376;2022-10-19T05:18:53;14.70;99.90
9448;DHT22;4762;48.128;11.376;2022-10-19T05:21:02;14.70;99.70
9448;DHT22;4762;48.128;11.376;2022-10-19T05:23:10;14.70;99.60
9448;DHT22;4762;48.128;11.376;2022-10-19T05:43:54;14.70;99.90
9448;DHT22;4762;48.128;11.376;2022-10-19T05:46:07;14.70;99.60
9448;DHT22;4762;48.128;11.376;2022-10-19T05:48:35;14.70;99.80
9448;DHT22;4762;48.128;11.376;2022-10-19T05:51:09;14.70;99.70
9448;DHT22;4762;48.128;11.376;2022-10-19T08:10:24;15.50;98.90
9448;DHT22;4762;48.128;11.376;2022-10-19T08:18:04;15.50;98.40
9448;DHT22;4762;48.128;11.376;2022-10-19T09:20:50;16.50;96.20
9448;DHT22;4762;48.128;11.376;2022-10-19T09:48:54;16.20;95.60
9448;DHT22;4762;48.128;11.376;2022-10-19T09:51:20;16.20;95.70
9448;DHT22;4762;48.128;11.376;2022-10-19T10:08:30;16.20;96.00
9448;DHT22;4762;48.128;11.376;2022-10-19T10:10:42;16.30;95.30
9448;DHT22;4762;48.128;11.376;2022-10-19T10:15:40;15.90;95.60
9448;DHT22;4762;48.128;11.376;2022-10-19T10:55:57;16.60;92.70
9448;DHT22;4762;48.128;11.376;2022-10-19T11:15:22;16.70;91.40
9448;DHT22;4762;48.128;11.376;2022-10-19T11:17:25;16.90;90.80
9448;DHT22;4762;48.128;11.376;2022-10-19T11:39:45;17.00;89.90
9448;DHT22;4762;48.128;11.376;2022-10-19T11:41:59;16.90;89.70
9448;DHT22;4762;48.128;11.376;2022-10-19T11:44:20;16.90;90.10
9448;DHT22;4762;48.128;11.376;2022-10-19T11:46:32;17.00;89.00
9448;DHT22;4762;48.128;11.376;2022-10-19T11:51:01;17.20;90.10
9448;DHT22;4762;48.128;11.376;2022-10-19T12:33:02;17.40;86.90
9448;DHT22;4762;48.128;11.376;2022-10-19T12:35:38;17.60;86.60
9448;DHT22;4762;48.128;11.376;2022-10-19T12:50:59;18.60;84.90
9448;DHT22;4762;48.128;11.376;2022-10-19T12:53:03;18.50;84.90
9448;DHT22;4762;48.128;11.376;2022-10-19T12:55:26;18.50;83.50
9448;DHT22;4762;48.128;11.376;2022-10-19T12:57:39;18.50;84.00
9448;DHT22;4762;48.128;11.376;2022-10-19T13:00:00;18.60;82.80
9448;DHT22;4762;48.128;11.376;2022-10-19T13:02:04;18.50;82.80
9448;DHT22;4762;48.128;11.376;2022-10-19T13:04:24;18.20;83.40
9448;DHT22;4762;48.128;11.376;2022-10-19T13:06:30;18.50;83.00
9448;DHT22;4762;48.128;11.376;2022-10-19T13:08:42;18.70;84.70
9448;DHT22;4762;48.128;11.376;2022-10-19T13:10:47;18.80;82.60
9448;DHT22;4762;48.128;11.376;2022-10-19T13:13:03;18.40;82.90
9448;DHT22;4762;48.128;11.376;2022-10-19T13:17:42;17.90;84.00
9448;DHT22;4762;48.128;11.376;2022-10-19T13:19:47;17.90;83.60
9448;DHT22;4762;48.128;11.376;2022-10-19T13:29:26;18.50;82.50
9448;DHT22;4762;48.128;11.376;2022-10-19T13:31:35;18.00;83.30
9448;DHT22;4762;48.128;11.376;2022-10-19T13:33:42;18.10;84.20
9448;DHT22;4762;48.128;11.376;2022-10-19T13:35:43;17.90;83.90
9448;DHT22;4762;48.128;11.376;2022-10-19T13:40:17;18.20;83.00
9448;DHT22;4762;48.128;11.376;2022-10-19T13:42:24;18.00;82.90
9448;DHT22;4762;48.128;11.376;2022-10-19T13:44:27;18.20;82.90
9448;DHT22;4762;48.128;11.376;2022-10-19T13:56:28;17.80;83.20
9448;DHT22;4762;48.128;11.376;2022-10-19T13:58:56;17.70;83.60
9448;DHT22;4762;48.128;11.376;2022-10-19T14:01:32;17.60;83.50
9448;DHT22;4762;48.128;11.376;2022-10-19T14:25:51;19.50;81.10
9448;DHT22;4762;48.128;11.376;2022-10-19T14:53:39;17.50;84.10
9448;DHT22;4762;48.128;11.376;2022-10-19T14:55:43;17.60;84.50
9448;DHT22;4762;48.128;11.376;2022-10-19T14:57:50;17.60;84.40
9448;DHT22;4762;48.128;11.376;2022-10-19T15:44:42;16.20;87.20
9448;DHT22;4762;48.128;11.376;2022-10-19T15:47:11;16.20;87.70
9448;DHT22;4762;48.128;11.376;2022-10-19T15:49:46;16.20;87.70
9448;DHT22;4762;48.128;11.376;2022-10-19T15:51:39;16.10;88.30
9448;DHT22;4762;48.128;11.376;2022-10-19T15:53:42;16.00;88.10
9448;DHT22;4762;48.128;11.376;2022-10-19T16:15:33;15.30;90.00
9448;DHT22;4762;48.128;11.376;2022-10-19T16:23:00;15.30;90.60
9448;DHT22;4762;48.128;11.376;2022-10-19T16:27:28;15.30;90.40
9448;DHT22;4762;48.128;11.376;2022-10-19T16:29:41;15.10;90.40
9448;DHT22;4762;48.128;11.376;2022-10-19T16:31:57;15.10;90.30
9448;DHT22;4762;48.128;11.376;2022-10-19T16:34:06;15.00;90.70
9448;DHT22;4762;48.128;11.376;2022-10-19T16:41:30;14.80;91.10
9448;DHT22;4762;48.128;11.376;2022-10-19T16:43:39;14.70;91.50
9448;DHT22;4762;48.128;11.376;2022-10-19T16:45:44;14.70;91.20
9448;DHT22;4762;48.128;11.376;2022-10-19T16:50:17;14.60;91.70
9448;DHT22;4762;48.128;11.376;2022-10-19T19:02:26;13.00;92.70
9448;DHT22;4762;48.128;11.376;2022-10-19T19:07:24;12.90;93.10
9448;DHT22;4762;48.128;11.376;2022-10-19T19:09:48;12.80;92.90
9448;DHT22;4762;48.128;11.376;2022-10-19T19:12:03;12.70;93.40
9448;DHT22;4762;48.128;11.376;2022-10-19T19:14:14;12.50;94.20
9448;DHT22;4762;48.128;11.376;2022-10-19T19:16:21;12.50;94.40
9448;DHT22;4762;48.128;11.376;2022-10-19T19:18:28;12.50;94.30
9448;DHT22;4762;48.128;11.376;2022-10-19T19:20:39;12.40;94.70
9448;DHT22;4762;48.128;11.376;2022-10-19T19:23:20;12.30;94.10
9448;DHT22;4762;48.128;11.376;2022-10-19T19:25:24;12.40;94.40
9448;DHT22;4762;48.128;11.376;2022-10-19T19:27:38;12.20;94.60
9448;DHT22;4762;48.128;11.376;2022-10-19T19:29:47;12.30;95.10
9448;DHT22;4762;48.128;11.376;2022-10-19T19:32:11;12.20;95.40
9448;DHT22;4762;48.128;11.376;2022-10-19T19:34:19;12.10;95.50
9448;DHT22;4762;48.128;11.376;2022-10-19T19:36:36;11.90;94.90
9448;DHT22;4762;48.128;11.376;2022-10-19T19:38:58;12.00;95.70
9448;DHT22;4762;48.128;11.376;2022-10-19T19:41:15;11.90;95.50
9448;DHT22;4762;48.128;11.376;2022-10-19T19:43:30;11.90;95.70
9448;DHT22;4762;48.128;11.376;2022-10-19T19:45:46;11.70;95.00
9448;DHT22;4762;48.128;11.376;2022-10-19T19:47:58;11.80;95.10
9448;DHT22;4762;48.128;11.376;2022-10-19T20:07:26;11.40;95.50
9448;DHT22;4762;48.128;11.376;2022-10-19T20:09:30;11.30;95.20
9448;DHT22;4762;48.128;11.376;2022-10-19T20:11:42;11.30;95.30
9448;DHT22;4762;48.128;11.376;2022-10-19T20:13:49;11.20;95.30
9448;DHT22;4762;48.128;11.376;2022-10-19T20:52:45;10.80;95.10
9448;DHT22;4762;48.128;11.376;2022-10-19T20:54:49;10.70;94.90
9448;DHT22;4762;48.128;11.376;2022-10-19T20:56:56;10.70;95.00
9448;DHT22;4762;48.128;11.376;2022-10-19T20:59:12;10.60;95.00
9448;DHT22;4762;48.128;11.376;2022-10-19T21:01:21;10.70;95.70
9448;DHT22;4762;48.128;11.376;2022-10-19T21:03:54;10.60;95.80
9448;DHT22;4762;48.128;11.376;2022-10-19T21:06:06;10.50;96.00
9448;DHT22;4762;48.128;11.376;2022-10-19T21:25:36;10.30;94.50
9448;DHT22;4762;48.128;11.376;2022-10-19T21:27:44;10.30;94.30
9448;DHT22;4762;48.128;11.376;2022-10-19T21:29:48;10.20;94.60
9448;DHT22;4762;48.128;11.376;2022-10-19T21:31:53;10.20;94.40
9448;DHT22;4762;48.128;11.376;2022-10-19T21:34:02;10.20;94.40
9448;DHT22;4762;48.128;11.376;2022-10-19T21:36:07;10.10;94.40
9448;DHT22;4762;48.128;11.376;2022-10-19T21:38:10;10.10;94.70
9448;DHT22;4762;48.128;11.376;2022-10-19T21:40:14;10.10;95.40
9448;DHT22;4762;48.128;11.376;2022-10-19T21:42:26;10.00;96.20
9448;DHT22;4762;48.128;11.376;2022-10-19T21:44:33;10.00;96.00
9448;DHT22;4762;48.128;11.376;2022-10-19T21:46:38;10.00;95.70
9448;DHT22;4762;48.128;11.376;2022-10-19T21:48:42;10.00;96.00
9448;DHT22;4762;48.128;11.376;2022-10-19T21:50:48;9.90;96.20
9448;DHT22;4762;48.128;11.376;2022-10-19T21:52:55;9.90;96.10
9448;DHT22;4762;48.128;11.376;2022-10-19T22:12:17;9.70;97.00
9448;DHT22;4762;48.128;11.376;2022-10-19T22:17:09;9.60;97.90
9448;DHT22;4762;48.128;11.376;2022-10-19T22:19:18;9.60;98.30
9448;DHT22;4762;48.128;11.376;2022-10-19T22:21:23;9.70;98.40
9448;DHT22;4762;48.128;11.376;2022-10-19T22:23:25;9.60;98.30
9448;DHT22;4762;48.128;11.376;2022-10-19T22:25:34;9.60;98.30
9448;DHT22;4762;48.128;11.376;2022-10-19T22:27:40;9.70;97.30
9448;DHT22;4762;48.128;11.376;2022-10-19T22:29:44;9.60;97.90
9448;DHT22;4762;48.128;11.376;2022-10-19T22:31:58;9.60;97.80
9448;DHT22;4762;48.128;11.376;2022-10-19T22:34:06;9.70;97.70
9448;DHT22;4762;48.128;11.376;2022-10-19T22:36:15;9.60;97.50
9448;DHT22;4762;48.128;11.376;2022-10-19T22:38:22;9.60;97.50
9448;DHT22;4762;48.128;11.376;2022-10-19T22:40:30;9.60;97.60
